Time;durP1;ratioP1;P1;durP2;ratioP2;P2;SDS_P1;SDS_P2;PMS_P1;PMS_P2;Temp;Humidity;BMP_temperature;BMP_pressure;BME280_temperature;BME280_humidity;BME280_pressure;Samples;Min_cycle;Max_cycle;Signal;HPM_P1;HPM_P2
2022/03/24 00:02:14;;;;;;;29.63;16.20;;;;;;;4.39;100.00;102054.00;6004354;29;20485;-92
2022/03/24 00:05:17;;;;;;;28.67;15.38;;;;;;;4.40;100.00;102048.00;5994655;29;20127;-92
2022/03/24 00:08:19;;;;;;;27.23;16.05;;;;;;;4.40;100.00;102045.44;6002231;29;20052;-92
2022/03/24 00:11:22;;;;;;;27.20;15.20;;;;;;;4.38;100.00;102042.09;6005918;29;20042;-92
2022/03/24 00:14:24;;;;;;;27.52;15.35;;;;;;;4.37;100.00;102040.38;5987132;29;20365;-92
2022/03/24 00:17:26;;;;;;;27.10;15.25;;;;;;;4.38;100.00;102028.44;6003284;29;20106;-92
2022/03/24 00:20:28;;;;;;;26.25;15.38;;;;;;;4.35;100.00;102031.94;6007421;29;20125;-92
2022/03/24 00:23:30;;;;;;;30.80;16.80;;;;;;;4.32;100.00;102030.28;6009655;29;20051;-92
2022/03/24 00:26:32;;;;;;;29.73;14.43;;;;;;;4.24;100.00;102029.66;6002104;29;20042;-92
2022/03/24 00:29:33;;;;;;;32.47;15.90;;;;;;;4.21;100.00;102031.47;5989876;29;20056;-92
2022/03/24 00:32:37;;;;;;;31.25;15.98;;;;;;;4.14;100.00;102029.94;5985495;29;20840;-92
2022/03/24 00:35:38;;;;;;;28.80;15.50;;;;;;;4.14;100.00;102033.34;5978732;29;20056;-92
2022/03/24 00:38:41;;;;;;;28.92;15.65;;;;;;;4.14;100.00;102029.94;6008228;29;20142;-92
2022/03/24 00:41:43;;;;;;;29.80;16.63;;;;;;;4.09;100.00;102028.34;6006933;29;20046;-92
2022/03/24 00:44:45;;;;;;;28.98;15.82;;;;;;;4.05;100.00;102024.22;5989920;29;20057;-92
2022/03/24 00:47:47;;;;;;;30.92;16.60;;;;;;;3.98;100.00;102020.13;5988656;29;20073;-92
2022/03/24 00:50:49;;;;;;;26.52;14.85;;;;;;;3.97;100.00;102022.72;6005907;29;20046;-92
2022/03/24 00:53:51;;;;;;;28.83;16.73;;;;;;;3.97;100.00;102020.16;5996025;29;20046;-92
2022/03/24 00:56:53;;;;;;;29.27;16.58;;;;;;;3.95;100.00;102020.22;5992066;29;20042;-92
2022/03/24 00:59:55;;;;;;;26.98;15.50;;;;;;;3.90;100.00;102016.94;5996360;29;20065;-92
2022/03/24 01:02:58;;;;;;;26.58;14.45;;;;;;;3.84;100.00;102019.66;6002656;29;20050;-92
2022/03/24 01:06:00;;;;;;;30.15;16.25;;;;;;;3.82;100.00;102008.63;6002633;29;20030;-92
2022/03/24 01:09:03;;;;;;;31.00;16.30;;;;;;;3.77;100.00;102008.72;6027403;29;20026;-92
2022/03/24 01:12:06;;;;;;;31.95;15.98;;;;;;;3.74;100.00;102005.41;6008260;29;20046;-92
2022/03/24 01:15:14;;;;;;;27.52;15.35;;;;;;;3.69;100.00;102009.81;6018482;29;20046;-92
2022/03/24 01:18:16;;;;;;;30.75;16.38;;;;;;;3.66;100.00;102003.91;6001726;29;20419;-91
2022/03/24 01:21:18;;;;;;;33.80;15.70;;;;;;;3.62;100.00;102001.47;5987131;29;20865;-91
2022/03/24 01:24:20;;;;;;;25.98;15.02;;;;;;;3.56;100.00;102001.63;5986286;29;20042;-91
2022/03/24 01:27:27;;;;;;;30.50;15.93;;;;;;;3.63;100.00;101998.03;5971358;29;20642;-91
2022/03/24 01:30:29;;;;;;;31.67;16.45;;;;;;;3.67;100.00;101994.50;6008646;29;20049;-91
2022/03/24 01:33:31;;;;;;;31.15;15.93;;;;;;;3.71;100.00;102000.38;6013846;29;20053;-91
2022/03/24 01:36:35;;;;;;;29.58;16.40;;;;;;;3.73;100.00;101991.78;6005230;29;20054;-91
2022/03/24 01:39:36;;;;;;;34.97;16.05;;;;;;;3.71;100.00;101988.41;5983001;29;20137;-91
2022/03/24 01:42:40;;;;;;;32.03;15.52;;;;;;;3.72;100.00;101991.81;5992017;29;20058;-91
2022/03/24 01:45:42;;;;;;;29.05;14.98;;;;;;;3.73;100.00;101985.84;5988061;29;20054;-91
2022/03/24 01:48:44;;;;;;;42.67;16.65;;;;;;;3.71;100.00;101987.59;6004489;29;20082;-91
2022/03/24 01:51:46;;;;;;;28.75;16.38;;;;;;;3.67;100.00;101987.66;6007795;29;20077;-90
2022/03/24 01:54:51;;;;;;;30.27;14.93;;;;;;;3.67;100.00;101992.75;6014415;29;20058;-91
2022/03/24 01:57:55;;;;;;;30.88;15.45;;;;;;;3.66;100.00;101980.84;5989987;29;20057;-91
2022/03/24 02:01:25;;;;;;;30.00;15.32;;;;;;;3.72;100.00;101986.69;5994810;29;20054;-91
2022/03/24 02:04:30;;;;;;;32.70;15.48;;;;;;;3.73;100.00;101978.16;5974457;29;20146;-90
2022/03/24 02:07:34;;;;;;;31.95;15.98;;;;;;;3.73;100.00;101978.16;5995246;29;20061;-91
2022/03/24 02:10:36;;;;;;;33.65;16.23;;;;;;;3.73;100.00;101976.41;5999172;29;20049;-91
2022/03/24 02:13:38;;;;;;;29.33;16.33;;;;;;;3.69;100.00;101977.38;6014139;29;20266;-91
2022/03/24 02:16:41;;;;;;;28.50;16.42;;;;;;;3.62;100.00;101976.69;6010945;29;20042;-91
2022/03/24 02:19:43;;;;;;;31.27;16.13;;;;;;;3.56;100.00;101976.03;5997293;29;20453;-91
2022/03/24 02:22:46;;;;;;;31.58;16.38;;;;;;;3.55;100.00;101970.06;6007185;29;20046;-91
2022/03/24 02:25:49;;;;;;;32.83;16.27;;;;;;;3.51;100.00;101971.03;5989472;29;20046;-91
2022/03/24 02:28:56;;;;;;;28.90;16.05;;;;;;;3.48;100.00;101972.81;6012101;29;20117;-91
2022/03/24 02:31:58;;;;;;;32.00;16.38;;;;;;;3.42;100.00;101982.31;6011177;29;20528;-91
2022/03/24 02:35:00;;;;;;;31.45;16.95;;;;;;;3.40;100.00;101975.56;6014142;29;20046;-91
2022/03/24 02:38:03;;;;;;;32.60;18.33;;;;;;;3.37;100.00;101973.94;6015146;29;20042;-91
2022/03/24 02:41:06;;;;;;;30.92;16.30;;;;;;;3.35;100.00;101974.84;5997521;29;20408;-91
2022/03/24 02:44:08;;;;;;;38.47;20.75;;;;;;;3.35;100.00;101972.28;5999071;29;20106;-91
2022/03/24 02:47:11;;;;;;;34.72;17.95;;;;;;;3.39;100.00;101979.84;5997861;29;20057;-91
2022/03/24 02:50:12;;;;;;;35.22;17.85;;;;;;;3.37;100.00;101976.50;5990461;29;20046;-91
2022/03/24 02:53:16;;;;;;;30.98;16.75;;;;;;;3.34;100.00;101968.06;6015089;29;20046;-91
2022/03/24 02:56:18;;;;;;;33.60;17.13;;;;;;;3.29;100.00;101970.72;5998968;29;20050;-91
2022/03/24 02:59:20;;;;;;;29.52;16.40;;;;;;;3.28;100.00;101969.06;6015776;29;20780;-91
2022/03/24 03:02:21;;;;;;;30.88;16.00;;;;;;;3.29;100.00;101975.03;6018411;29;20101;-91
2022/03/24 03:05:24;;;;;;;30.70;17.40;;;;;;;3.29;100.00;101975.03;5997963;29;20360;-91
2022/03/24 03:08:26;;;;;;;33.58;17.10;;;;;;;3.28;100.00;101981.00;6018009;29;20130;-91
2022/03/24 03:11:30;;;;;;;32.47;16.48;;;;;;;3.29;100.00;101977.56;6017878;29;20148;-91
2022/03/24 03:14:33;;;;;;;28.77;16.17;;;;;;;3.27;100.00;101976.75;6016929;29;20049;-91
2022/03/24 03:17:36;;;;;;;33.50;17.00;;;;;;;3.23;100.00;101970.91;6001739;29;20246;-91
2022/03/24 03:20:38;;;;;;;38.70;17.88;;;;;;;3.17;100.00;101974.44;6001111;29;20057;-91
2022/03/24 03:23:42;;;;;;;35.30;16.40;;;;;;;3.16;100.00;101980.44;5981900;29;20496;-91
2022/03/24 03:26:43;;;;;;;34.92;17.60;;;;;;;3.18;100.00;101975.25;6009424;29;20102;-91
2022/03/24 03:29:45;;;;;;;35.03;17.63;;;;;;;3.19;100.00;101977.78;6014033;29;20045;-91
2022/03/24 03:32:47;;;;;;;30.80;16.45;;;;;;;3.19;100.00;101976.97;5995897;29;20062;-91
2022/03/24 03:35:50;;;;;;;29.27;16.30;;;;;;;3.15;100.00;101980.47;6013151;29;20170;-91
2022/03/24 03:38:52;;;;;;;33.35;16.98;;;;;;;3.07;100.00;101978.09;6014276;29;20041;-91
2022/03/24 03:41:54;;;;;;;34.28;18.33;;;;;;;2.98;100.00;101980.88;6016766;29;20758;-91
2022/03/24 03:44:56;;;;;;;32.80;16.77;;;;;;;2.86;100.00;101981.16;5999551;29;20172;-91
2022/03/24 03:47:58;;;;;;;34.05;16.23;;;;;;;2.74;100.00;101974.63;6019157;29;20102;-90
2022/03/24 03:51:00;;;;;;;34.25;17.35;;;;;;;2.71;100.00;101977.25;6009941;29;20050;-90
2022/03/24 03:54:03;;;;;;;33.97;17.42;;;;;;;2.69;100.00;101974.72;6016986;29;20042;-91
2022/03/24 03:57:05;;;;;;;31.70;17.05;;;;;;;2.70;100.00;101973.00;5984415;29;20054;-91
2022/03/24 04:03:29;;;;;;;32.83;16.45;;;;;;;2.68;100.00;101975.59;6014874;29;20431;-91
2022/03/24 04:06:31;;;;;;;33.83;16.63;;;;;;;2.68;100.00;101978.13;6015513;29;20050;-91
2022/03/24 04:09:33;;;;;;;30.70;17.08;;;;;;;2.64;100.00;101981.66;6006864;29;20042;-91
2022/03/24 04:12:35;;;;;;;36.50;17.67;;;;;;;2.55;100.00;101982.69;6019341;29;20049;-91
2022/03/24 04:15:38;;;;;;;35.05;17.23;;;;;;;2.48;100.00;101970.91;6004043;29;20050;-91
2022/03/24 04:18:43;;;;;;;33.75;17.23;;;;;;;2.46;100.00;101982.03;6019067;29;20041;-91
2022/03/24 04:21:45;;;;;;;30.45;16.30;;;;;;;2.39;100.00;101971.13;6013097;29;20054;-91
2022/03/24 04:24:47;;;;;;;38.50;18.13;;;;;;;2.37;100.00;101970.31;6010346;29;20068;-91
2022/03/24 04:27:50;;;;;;;33.20;17.75;;;;;;;2.33;100.00;101973.81;6005216;29;20072;-91
2022/03/24 04:30:53;;;;;;;32.75;17.38;;;;;;;2.31;100.00;101978.09;6008498;29;20547;-91
2022/03/24 04:33:55;;;;;;;33.45;17.00;;;;;;;2.28;100.00;101967.94;6000829;29;20086;-91
2022/03/24 04:36:57;;;;;;;34.83;17.45;;;;;;;2.21;100.00;101972.38;6010791;29;21053;-91
2022/03/24 04:39:59;;;;;;;32.78;17.52;;;;;;;2.12;100.00;101970.84;6008320;29;20054;-91
2022/03/24 04:43:01;;;;;;;33.17;17.77;;;;;;;2.09;100.00;101972.63;6005666;29;20061;-91
2022/03/24 04:46:09;;;;;;;30.65;17.02;;;;;;;2.03;100.00;101970.19;5958360;29;20059;-91
2022/03/24 04:49:21;;;;;;;31.88;17.30;;;;;;;1.96;100.00;101973.72;5955903;29;20055;-91
2022/03/24 04:52:24;;;;;;;37.28;17.73;;;;;;;1.84;100.00;101973.09;5957020;30;20076;-91
2022/03/24 04:55:28;;;;;;;35.95;18.08;;;;;;;1.82;100.00;101974.00;5957450;29;20039;-91
2022/03/24 04:58:31;;;;;;;31.15;17.73;;;;;;;1.76;100.00;101974.94;5956828;30;20622;-91
2022/03/24 05:01:34;;;;;;;32.78;18.27;;;;;;;1.75;100.00;101980.94;5926660;30;20063;-91
2022/03/24 05:04:36;;;;;;;34.33;17.70;;;;;;;1.73;100.00;101980.94;5947358;29;20490;-92
2022/03/24 05:07:43;;;;;;;36.17;17.63;;;;;;;1.69;100.00;101973.38;5934068;30;20051;-91
2022/03/24 05:10:50;;;;;;;33.13;17.05;;;;;;;1.70;100.00;101969.97;5962300;29;20051;-91
2022/03/24 05:13:57;;;;;;;31.35;17.63;;;;;;;1.72;100.00;101974.16;5949929;29;20521;-91
2022/03/24 05:17:06;;;;;;;35.03;18.00;;;;;;;1.76;100.00;101974.09;5941444;29;20085;-91
2022/03/24 05:20:10;;;;;;;32.05;18.00;;;;;;;1.81;100.00;101979.97;5935187;29;20108;-91
2022/03/24 05:23:30;;;;;;;37.90;17.65;;;;;;;1.78;100.00;101972.38;5927843;30;20078;-91
2022/03/24 05:26:51;;;;;;;35.53;18.15;;;;;;;1.76;100.00;101974.09;6058500;23;20057;-91
2022/03/24 05:30:09;;;;;;;42.50;17.85;;;;;;;1.76;100.00;101977.50;3346829;23;20269;-90
2022/03/24 05:33:22;;;;;;;34.28;18.80;;;;;;;1.77;100.00;101980.91;5990101;29;20084;-91
2022/03/24 05:37:11;;;;;;;36.88;18.60;;;;;;;1.78;100.00;101980.03;6009229;29;20054;-92
2022/03/24 05:40:26;;;;;;;35.65;19.33;;;;;;;1.82;100.00;101985.06;5985804;24;20063;-91
2022/03/24 05:43:34;;;;;;;36.03;18.27;;;;;;;1.83;100.00;101988.44;3497446;23;20244;-92
2022/03/24 05:46:45;;;;;;;39.70;18.45;;;;;;;1.85;100.00;101984.97;6073933;23;20037;31
2022/03/24 05:49:51;;;;;;;35.80;18.83;;;;;;;1.88;100.00;101982.38;5986103;29;20042;-91
2022/03/24 05:53:05;;;;;;;37.25;18.15;;;;;;;1.90;100.00;101979.78;5998490;24;20063;-91
2022/03/24 05:56:08;;;;;;;35.47;17.75;;;;;;;1.90;100.00;101980.63;5969224;29;20065;-92
2022/03/24 05:59:12;;;;;;;34.00;18.75;;;;;;;1.97;100.00;101976.25;5959848;29;20127;-91
2022/03/24 06:02:21;;;;;;;36.08;18.50;;;;;;;2.03;100.00;101976.13;5966766;29;20091;-91
2022/03/24 06:05:25;;;;;;;39.15;21.88;;;;;;;2.12;100.00;101972.56;5959431;29;20055;-91
2022/03/24 06:08:27;;;;;;;37.17;19.08;;;;;;;2.18;100.00;101980.06;5984337;29;20047;-91
2022/03/24 06:11:30;;;;;;;31.48;17.65;;;;;;;2.18;100.00;101981.78;5958167;29;20059;-91
2022/03/24 06:14:37;;;;;;;36.75;19.40;;;;;;;2.21;100.00;101979.16;5978279;29;20080;-91
2022/03/24 06:17:39;;;;;;;34.63;19.83;;;;;;;2.27;100.00;101992.66;5943878;30;20096;-91
2022/03/24 06:20:43;;;;;;;40.33;20.85;;;;;;;2.32;100.00;101990.84;5956884;30;20043;-91
2022/03/24 06:23:45;;;;;;;38.15;21.38;;;;;;;2.45;100.00;101983.75;5940619;30;20058;-91
2022/03/24 06:26:48;;;;;;;43.75;20.88;;;;;;;2.53;100.00;101989.53;5939028;30;20059;-91
2022/03/24 06:29:50;;;;;;;38.35;20.80;;;;;;;2.62;100.00;101996.19;5956718;29;20070;-91
2022/03/24 06:32:52;;;;;;;36.30;19.35;;;;;;;2.69;100.00;101984.13;5957836;29;20087;-91
2022/03/24 06:35:54;;;;;;;39.60;19.52;;;;;;;2.73;100.00;101981.47;5960804;30;20062;-91
2022/03/24 06:38:58;;;;;;;41.63;20.30;;;;;;;2.72;100.00;101990.00;5942730;30;20051;-91
2022/03/24 06:42:02;;;;;;;38.92;20.15;;;;;;;2.77;100.00;102000.13;5934519;30;20120;-91
2022/03/24 06:45:06;;;;;;;38.65;20.27;;;;;;;2.83;100.00;101996.56;5921911;30;20062;-91
2022/03/24 06:48:09;;;;;;;37.33;20.88;;;;;;;2.86;100.00;101999.06;5949270;30;20081;-91
2022/03/24 06:51:11;;;;;;;35.00;18.77;;;;;;;2.91;100.00;102007.50;5944398;30;20038;-91
2022/03/24 06:54:13;;;;;;;43.03;21.33;;;;;;;2.96;100.00;102006.50;5958958;29;20047;-91
2022/03/24 06:57:14;;;;;;;39.45;19.42;;;;;;;3.04;100.00;102003.75;5952483;29;20059;-91
2022/03/24 07:00:17;;;;;;;39.72;20.50;;;;;;;3.14;100.00;102007.78;5939918;29;20065;-92
2022/03/24 07:03:19;;;;;;;39.70;20.77;;;;;;;3.24;100.00;102009.22;5924016;29;20059;-91
2022/03/24 07:06:21;;;;;;;38.80;20.65;;;;;;;3.36;100.00;102009.81;5939159;30;20143;-91
2022/03/24 07:09:23;;;;;;;43.45;21.00;;;;;;;3.45;100.00;102007.88;5952284;30;20505;-91
2022/03/24 07:12:25;;;;;;;37.83;19.42;;;;;;;3.56;100.00;102015.25;5949813;29;20406;-91
2022/03/24 07:15:30;;;;;;;38.47;20.20;;;;;;;3.66;100.00;102018.44;5945720;29;20050;-91
2022/03/24 07:18:32;;;;;;;37.90;19.77;;;;;;;3.76;100.00;102019.03;5952495;29;20735;-91
2022/03/24 07:21:34;;;;;;;40.72;20.25;;;;;;;3.80;100.00;102023.16;5951787;29;20182;-91
2022/03/24 07:24:36;;;;;;;31.15;18.55;;;;;;;3.85;100.00;102018.75;5950765;30;20047;-91
2022/03/24 07:27:38;;;;;;;38.05;20.33;;;;;;;3.91;100.00;102023.75;5931689;30;20051;-91
2022/03/24 07:30:42;;;;;;;39.40;21.48;;;;;;;3.98;100.00;102021.88;5929148;30;20056;-91
2022/03/24 07:33:45;;;;;;;34.92;20.27;;;;;;;4.09;100.00;102028.34;5937504;29;20058;-91
2022/03/24 07:36:47;;;;;;;38.72;19.92;;;;;;;4.16;100.00;102030.75;5937873;29;20118;-92
2022/03/24 07:39:49;;;;;;;36.90;20.45;;;;;;;4.25;100.00;102035.63;5940302;29;20092;-91
2022/03/24 07:42:53;;;;;;;36.67;21.15;;;;;;;4.37;100.00;102031.88;5945608;29;20087;-91
2022/03/24 07:45:55;;;;;;;35.10;19.55;;;;;;;4.48;100.00;102028.13;5939705;30;20047;-90
2022/03/24 07:48:59;;;;;;;38.13;20.42;;;;;;;4.61;100.00;102033.72;5945781;30;20040;-91
2022/03/24 07:52:08;;;;;;;37.17;20.55;;;;;;;4.64;100.00;102030.22;5952846;30;20128;-91
2022/03/24 07:55:10;;;;;;;39.13;21.05;;;;;;;4.69;100.00;102034.31;5932016;29;20040;-91
2022/03/24 07:58:14;;;;;;;36.25;19.60;;;;;;;4.78;100.00;102030.66;5939236;29;20066;-91
2022/03/24 08:01:25;;;;;;;43.33;20.02;;;;;;;4.86;100.00;102036.38;5915451;30;20047;-91
2022/03/24 08:04:27;;;;;;;39.10;20.52;;;;;;;4.96;100.00;102037.75;5931302;30;20055;-91
2022/03/24 08:07:29;;;;;;;34.72;19.40;;;;;;;5.05;100.00;102033.25;5930111;30;20059;-91
2022/03/24 08:10:31;;;;;;;36.25;20.35;;;;;;;5.14;100.00;102041.50;5913207;30;20052;-91
2022/03/24 08:13:33;;;;;;;33.90;19.73;;;;;;;5.27;100.00;102044.50;5934714;29;20122;-91
2022/03/24 08:16:35;;;;;;;34.80;19.10;;;;;;;5.32;100.00;102042.63;5933820;29;20058;-91
2022/03/24 08:19:37;;;;;;;40.42;20.85;;;;;;;5.42;100.00;102043.19;5917601;29;20059;-91
2022/03/24 08:22:38;;;;;;;39.33;21.52;;;;;;;5.52;100.00;102048.84;5921811;30;20351;-91
2022/03/24 08:25:42;;;;;;;41.88;21.38;;;;;;;5.62;100.00;102052.78;5922036;30;20051;-94
2022/03/24 08:28:44;;;;;;;37.95;21.10;;;;;;;5.74;100.00;102057.50;5934617;30;20104;-94
2022/03/24 08:31:47;;;;;;;38.08;20.17;;;;;;;5.86;100.00;102055.41;5932007;29;20107;-91
2022/03/24 08:34:49;;;;;;;38.10;20.23;;;;;;;6.00;100.00;102058.38;5927882;30;20055;-92
2022/03/24 08:37:52;;;;;;;42.00;20.83;;;;;;;6.23;100.00;102054.97;5936068;30;20084;-91
2022/03/24 08:40:54;;;;;;;42.58;19.98;;;;;;;6.31;99.76;102057.25;5931117;29;20173;-91
2022/03/24 08:43:56;;;;;;;38.17;20.20;;;;;;;6.39;98.91;102052.69;5922390;29;20051;-91
2022/03/24 08:46:58;;;;;;;35.15;19.63;;;;;;;6.55;94.94;102052.94;5926188;29;20052;-91
2022/03/24 08:50:00;;;;;;;36.65;21.10;;;;;;;6.68;92.34;102062.75;5945014;29;20043;-91
2022/03/24 08:53:04;;;;;;;39.65;20.10;;;;;;;6.85;91.02;102062.06;5928525;30;20043;-91
2022/03/24 08:56:06;;;;;;;36.20;19.52;;;;;;;6.98;90.02;102054.72;5932583;30;20050;-91
2022/03/24 08:59:09;;;;;;;39.22;20.45;;;;;;;7.12;87.79;102057.56;5929499;29;20152;-91
2022/03/24 09:02:12;;;;;;;38.75;19.70;;;;;;;7.27;85.31;102061.28;5929317;29;20051;-91
2022/03/24 09:05:21;;;;;;;36.55;19.88;;;;;;;7.42;85.13;102058.97;5927872;29;20058;-91
2022/03/24 09:08:23;;;;;;;36.53;19.95;;;;;;;7.54;83.12;102059.31;5919237;29;20052;-91
2022/03/24 09:11:25;;;;;;;35.55;20.48;;;;;;;7.68;82.81;102060.50;5914796;30;20536;-91
2022/03/24 09:14:27;;;;;;;39.97;20.67;;;;;;;7.77;82.41;102054.94;5932604;30;20051;-91
2022/03/24 09:17:29;;;;;;;43.78;22.40;;;;;;;7.91;81.80;102062.09;5928371;30;20508;-91
2022/03/24 09:20:31;;;;;;;40.17;21.92;;;;;;;8.10;85.71;102064.69;5906531;30;20691;-91
2022/03/24 09:23:33;;;;;;;39.47;20.77;;;;;;;8.20;86.87;102064.22;5924022;30;20055;-90
2022/03/24 09:26:37;;;;;;;36.95;21.05;;;;;;;8.39;85.00;102074.59;5928515;29;20098;-91
2022/03/24 09:29:39;;;;;;;39.03;22.13;;;;;;;8.50;81.71;102076.69;5926411;29;20614;-91
2022/03/24 09:32:42;;;;;;;36.72;19.83;;;;;;;8.60;82.89;102077.13;5923562;30;20047;-91
2022/03/24 09:35:44;;;;;;;40.75;21.15;;;;;;;8.75;80.07;102079.00;5928165;30;20051;-91
2022/03/24 09:38:46;;;;;;;35.95;20.42;;;;;;;8.82;79.79;102072.63;5925511;30;20058;-91
2022/03/24 09:41:48;;;;;;;37.78;20.85;;;;;;;8.93;77.77;102072.13;5914644;29;20051;-91
2022/03/24 09:44:50;;;;;;;44.33;20.67;;;;;;;8.99;77.52;102071.00;5928763;29;20051;-91
2022/03/24 09:47:52;;;;;;;41.78;21.42;;;;;;;9.08;78.20;102070.56;5933914;30;20051;-90
2022/03/24 09:50:54;;;;;;;37.15;21.30;;;;;;;9.26;79.12;102061.91;5930797;29;20075;-90
2022/03/24 09:53:56;;;;;;;36.03;20.90;;;;;;;9.41;79.63;102065.50;5931535;30;20108;-91
2022/03/24 09:57:06;;;;;;;35.00;20.23;;;;;;;9.56;76.15;102066.47;5929239;29;20051;-91
2022/03/24 10:00:08;;;;;;;37.13;19.83;;;;;;;9.74;75.57;102067.34;5906638;30;20131;-90
2022/03/24 10:03:12;;;;;;;39.95;20.83;;;;;;;9.84;72.23;102067.69;5898736;30;20514;-90
2022/03/24 10:06:14;;;;;;;37.42;19.73;;;;;;;9.92;73.45;102068.97;5926391;29;20119;-90
2022/03/24 10:09:44;;;;;;;37.15;19.95;;;;;;;10.07;71.16;102069.09;5923882;30;20067;-91
2022/03/24 10:12:46;;;;;;;39.00;20.45;;;;;;;10.26;71.59;102068.94;5930823;30;20521;-91
2022/03/24 10:15:47;;;;;;;36.80;20.63;;;;;;;10.32;69.76;102059.16;5925594;29;20103;-91
2022/03/24 10:18:58;;;;;;;37.08;20.52;;;;;;;10.41;69.52;102056.97;5927613;30;20756;-91
2022/03/24 10:22:07;;;;;;;38.75;19.85;;;;;;;10.45;69.01;102058.50;5921364;30;20188;-91
2022/03/24 10:25:21;;;;;;;40.47;20.65;;;;;;;10.52;69.59;102052.91;5933275;29;20141;-91
2022/03/24 10:28:24;;;;;;;34.50;19.88;;;;;;;10.64;66.41;102041.03;5935939;29;20548;-91
2022/03/24 10:31:41;;;;;;;34.33;19.27;;;;;;;10.82;64.88;102044.38;5911760;30;20051;-90
2022/03/24 10:34:48;;;;;;;34.72;19.42;;;;;;;10.98;62.13;102044.34;5923811;29;20075;-91
2022/03/24 10:37:52;;;;;;;33.08;18.88;;;;;;;11.25;63.32;102041.09;5929020;30;20055;-90
2022/03/24 10:40:54;;;;;;;33.97;20.17;;;;;;;11.36;56.60;102030.97;5925858;29;20055;-91
2022/03/24 10:43:59;;;;;;;37.90;19.33;;;;;;;11.45;60.94;102030.41;5897578;30;20055;-90
2022/03/24 10:47:05;;;;;;;29.40;18.80;;;;;;;11.59;62.91;102032.19;5923853;29;20469;-91
2022/03/24 10:50:33;;;;;;;40.95;21.02;;;;;;;11.61;62.49;102027.75;5931135;29;20497;-90
2022/03/24 10:53:41;;;;;;;31.95;17.70;;;;;;;11.75;53.28;102026.94;5933124;30;20181;-90
2022/03/24 10:57:06;;;;;;;32.28;19.15;;;;;;;11.87;53.80;102030.59;5913296;30;20054;-91
2022/03/24 11:00:09;;;;;;;33.40;19.95;;;;;;;11.92;58.35;102024.19;5932054;29;20051;-90
2022/03/24 11:03:11;;;;;;;35.50;19.08;;;;;;;12.07;55.22;102028.47;5934727;30;20052;-91
2022/03/24 11:06:17;;;;;;;33.90;18.92;;;;;;;12.18;57.78;102025.19;5929749;29;20188;-91
2022/03/24 11:09:24;;;;;;;35.65;18.88;;;;;;;12.23;51.09;102014.53;5931920;29;20052;-90
2022/03/24 11:12:36;;;;;;;37.85;18.50;;;;;;;12.22;53.14;102018.91;5924384;30;20043;-90
2022/03/24 11:15:39;;;;;;;33.70;18.67;;;;;;;12.35;55.02;102015.53;5921174;30;20047;-90
2022/03/24 11:18:42;;;;;;;37.63;17.85;;;;;;;12.54;54.10;102010.00;5928087;29;20108;-90
2022/03/24 11:21:57;;;;;;;33.58;18.20;;;;;;;12.71;51.91;102018.38;5933681;29;20078;-91
2022/03/24 11:25:00;;;;;;;36.17;17.55;;;;;;;12.82;50.58;102015.13;5925577;29;20154;-91
2022/03/24 11:28:14;;;;;;;33.95;17.77;;;;;;;12.85;54.42;102017.50;5940378;29;20043;-90
2022/03/24 11:31:17;;;;;;;28.95;18.00;;;;;;;12.91;51.25;102013.66;5935115;29;20109;-90
2022/03/24 11:34:19;;;;;;;34.72;19.10;;;;;;;13.05;48.35;102005.81;5938269;29;20055;-90
2022/03/24 11:37:22;;;;;;;33.15;18.73;;;;;;;13.13;48.98;102002.72;5938127;29;20475;-90
2022/03/24 11:40:30;;;;;;;31.95;17.30;;;;;;;13.17;48.40;102000.72;5926030;29;20044;-90
2022/03/24 11:43:35;;;;;;;31.75;18.88;;;;;;;13.21;51.89;101999.59;5917892;29;20116;-90
2022/03/24 11:47:13;;;;;;;31.50;18.17;;;;;;;13.32;49.13;101995.38;5935975;29;20537;-90
2022/03/24 11:50:17;;;;;;;34.35;18.27;;;;;;;13.55;51.37;101987.78;5852770;30;20101;-91
2022/03/24 11:53:35;;;;;;;30.60;16.50;;;;;;;13.89;49.34;101988.91;5880503;30;20059;-91
2022/03/24 11:56:37;;;;;;;31.85;16.60;;;;;;;13.80;47.01;101981.72;5889628;30;20056;-90
2022/03/24 11:59:38;;;;;;;28.52;15.93;;;;;;;13.91;45.74;101979.22;5883237;30;20537;-90
2022/03/24 12:02:43;;;;;;;32.45;16.15;;;;;;;13.86;45.39;101981.28;5886508;30;20056;-90
2022/03/24 12:05:51;;;;;;;32.85;16.45;;;;;;;13.78;46.13;101971.41;5865384;30;20439;-90
2022/03/24 12:09:02;;;;;;;30.77;16.02;;;;;;;13.73;46.82;101970.91;5873099;30;20060;-90
2022/03/24 12:12:04;;;;;;;30.95;16.58;;;;;;;13.86;48.74;101967.44;5887730;30;20052;-91
2022/03/24 12:15:17;;;;;;;29.83;16.40;;;;;;;14.15;49.19;101965.41;5889198;30;20577;-90
2022/03/24 12:18:19;;;;;;;31.83;16.83;;;;;;;14.31;45.39;101965.13;5887762;30;20685;-90
2022/03/24 12:21:26;;;;;;;30.35;16.23;;;;;;;14.42;43.71;101957.41;5885228;30;20446;-90
2022/03/24 12:24:38;;;;;;;28.85;16.73;;;;;;;14.43;44.12;101959.03;5876935;30;20060;-91
2022/03/24 12:28:18;;;;;;;29.33;15.35;;;;;;;14.41;44.08;101956.56;5933793;30;20078;-90
2022/03/24 12:31:20;;;;;;;31.15;16.40;;;;;;;14.53;43.47;101954.00;5868774;30;20068;-93
2022/03/24 12:34:31;;;;;;;28.17;15.07;;;;;;;14.74;45.69;101952.47;5867102;30;20527;-93
2022/03/24 12:37:32;;;;;;;30.30;15.98;;;;;;;14.89;45.82;101950.50;5870229;30;20052;-91
2022/03/24 12:40:34;;;;;;;31.13;17.48;;;;;;;14.99;45.55;101945.44;5866544;30;20139;-93
2022/03/24 12:43:41;;;;;;;29.33;14.65;;;;;;;15.18;45.13;101940.50;5851041;30;20059;-93
2022/03/24 12:46:44;;;;;;;28.17;13.80;;;;;;;15.27;40.19;101937.16;5865895;30;20284;-93
2022/03/24 12:49:47;;;;;;;28.48;13.60;;;;;;;15.32;41.94;101933.38;5867880;30;20066;-93
2022/03/24 12:53:03;;;;;;;31.13;14.25;;;;;;;15.32;42.06;101936.00;5865978;30;20053;-93
2022/03/24 12:56:31;;;;;;;28.85;14.13;;;;;;;15.14;41.03;101927.81;5865876;30;20060;-93
2022/03/24 12:59:36;;;;;;;31.85;16.20;;;;;;;15.32;41.41;101928.16;6014757;24;20037;-94
2022/03/24 13:02:55;;;;;;;33.92;15.38;;;;;;;15.33;41.31;101924.59;6032556;29;20082;-94
2022/03/24 13:06:13;;;;;;;29.38;15.50;;;;;;;15.31;41.23;101926.53;5986122;29;20045;-94
2022/03/24 13:09:26;;;;;;;31.10;15.50;;;;;;;15.37;40.67;101923.44;6000521;29;20046;-94
2022/03/24 13:12:34;;;;;;;28.95;14.30;;;;;;;15.45;42.37;101915.81;6006448;29;20531;-94
2022/03/24 13:15:52;;;;;;;29.00;15.10;;;;;;;15.76;40.65;101910.88;5979638;29;20053;-94
2022/03/24 13:19:03;;;;;;;26.17;15.07;;;;;;;15.92;39.96;101901.72;6022280;29;20034;-94
2022/03/24 13:22:15;;;;;;;28.05;15.15;;;;;;;16.08;43.17;101905.69;6006768;29;20038;-94
2022/03/24 13:25:30;;;;;;;32.97;15.68;;;;;;;16.22;43.46;101899.34;6025303;29;20052;-94
2022/03/24 13:29:03;;;;;;;33.40;16.13;;;;;;;16.24;39.41;101900.06;6024735;29;20049;-94
2022/03/24 13:32:20;;;;;;;27.05;14.60;;;;;;;16.40;42.15;101892.66;6002907;29;20087;-94
2022/03/24 13:35:34;;;;;;;27.38;14.98;;;;;;;16.63;39.55;101895.97;6063286;24;20066;-94
2022/03/24 13:38:45;;;;;;;27.55;14.95;;;;;;;16.55;41.36;101895.78;6002073;29;20081;-94
2022/03/24 13:41:56;;;;;;;28.90;15.95;;;;;;;16.53;38.33;101892.47;6013839;29;20029;-94
2022/03/24 13:45:05;;;;;;;29.83;16.17;;;;;;;16.57;38.93;101893.84;6011020;29;20050;-94
2022/03/24 13:48:17;;;;;;;29.35;15.68;;;;;;;16.51;38.92;101892.56;5983178;29;20058;-94
2022/03/24 13:51:27;;;;;;;25.83;15.32;;;;;;;16.58;39.29;101883.28;5994757;29;20396;-94
2022/03/24 13:54:34;;;;;;;28.40;15.73;;;;;;;16.71;38.29;101892.72;6148777;24;20017;-93
2022/03/24 13:58:06;;;;;;;29.02;14.93;;;;;;;16.72;38.69;101889.97;6218480;23;20038;-92
2022/03/24 14:01:16;;;;;;;28.25;15.40;;;;;;;16.67;38.33;101886.94;5975623;29;20125;-92
2022/03/24 14:04:23;;;;;;;27.05;14.85;;;;;;;16.87;40.20;101887.06;5999935;29;20079;-92
2022/03/24 14:08:02;;;;;;;29.85;15.05;;;;;;;17.03;37.63;101884.00;6286943;23;20061;-93